createdAt,value
2018-07-05T00:00:26.918Z,66.80
2018-07-05T00:05:54.247Z,66.90
2018-07-05T00:08:40.957Z,66.10
2018-07-05T00:11:27.391Z,66.00
2018-07-05T00:14:14.034Z,65.90
2018-07-05T00:17:00.126Z,66.30
2018-07-05T00:19:46.480Z,65.60
2018-07-05T00:22:33.174Z,66.10
2018-07-05T00:25:19.606Z,66.70
2018-07-05T00:28:06.161Z,67.10
2018-07-05T00:30:52.816Z,67.30
2018-07-05T00:33:39.496Z,68.20
2018-07-05T00:36:27.281Z,68.10
2018-07-05T00:39:13.948Z,68.20
2018-07-05T00:42:00.783Z,69.60
2018-07-05T00:44:47.450Z,69.60
2018-07-05T00:47:34.179Z,69.10
2018-07-05T00:50:21.044Z,69.40
2018-07-05T00:53:07.714Z,69.60
2018-07-05T00:55:53.880Z,69.40
2018-07-05T00:58:40.425Z,69.10
2018-07-05T01:01:27.056Z,69.20
2018-07-05T01:04:13.488Z,69.20
2018-07-05T01:07:00.116Z,69.30
2018-07-05T01:09:46.385Z,69.40
2018-07-05T01:12:33.341Z,69.50
2018-07-05T01:15:20.172Z,69.30
2018-07-05T01:20:47.156Z,69.00
2018-07-05T01:23:33.759Z,68.90
2018-07-05T01:26:20.420Z,69.50
2018-07-05T01:29:07.100Z,70.00
2018-07-05T01:31:53.685Z,70.50
2018-07-05T01:34:40.479Z,69.90
2018-07-05T01:37:27.118Z,69.70
2018-07-05T01:40:13.828Z,69.80
2018-07-05T01:43:00.609Z,70.30
2018-07-05T01:45:47.050Z,70.20
2018-07-05T01:48:33.735Z,69.80
2018-07-05T01:51:20.381Z,69.80
2018-07-05T01:54:07.106Z,69.70
2018-07-05T01:56:54.043Z,68.90
2018-07-05T01:59:40.765Z,68.70
2018-07-05T02:02:27.461Z,69.00
2018-07-05T02:05:13.877Z,69.40
2018-07-05T02:08:00.522Z,69.60
2018-07-05T02:10:47.096Z,69.50
2018-07-05T02:13:33.665Z,67.70
2018-07-05T02:16:20.440Z,68.10
2018-07-05T02:19:07.081Z,67.60
2018-07-05T02:21:53.731Z,66.20
2018-07-05T02:24:40.070Z,65.50
2018-07-05T02:27:26.466Z,65.40
2018-07-05T02:30:12.827Z,65.50
2018-07-05T02:32:59.160Z,65.60
2018-07-05T02:35:45.811Z,65.40
2018-07-05T02:38:32.612Z,65.50
2018-07-05T02:41:19.344Z,65.50
2018-07-05T02:44:06.129Z,65.40
2018-07-05T02:46:52.922Z,65.80
2018-07-05T02:49:39.622Z,65.80
2018-07-05T02:52:26.570Z,65.70
2018-07-05T02:55:13.392Z,65.70
2018-07-05T02:57:59.596Z,65.40
2018-07-05T03:00:46.685Z,64.90
2018-07-05T03:03:33.466Z,65.50
2018-07-05T03:06:19.951Z,64.70
2018-07-05T03:09:06.767Z,64.80
2018-07-05T03:11:53.481Z,64.30
2018-07-05T03:14:40.371Z,64.70
2018-07-05T03:17:27.214Z,64.40
2018-07-05T03:20:14.117Z,64.50
2018-07-05T03:23:00.896Z,64.60
2018-07-05T03:25:47.936Z,63.90
2018-07-05T03:28:34.662Z,64.60
2018-07-05T03:31:21.381Z,64.60
2018-07-05T03:34:07.980Z,64.70
2018-07-05T03:36:55.013Z,64.90
2018-07-05T03:39:41.500Z,64.90
2018-07-05T03:42:28.425Z,65.40
2018-07-05T03:45:15.084Z,65.50
2018-07-05T03:48:01.679Z,65.20
2018-07-05T03:50:47.781Z,64.90
2018-07-05T03:53:34.325Z,64.70
2018-07-05T03:56:20.915Z,64.60
2018-07-05T03:59:07.715Z,64.20
2018-07-05T04:01:54.253Z,64.30
2018-07-05T04:04:40.759Z,64.40
2018-07-05T04:07:27.411Z,64.30
2018-07-05T04:10:14.270Z,64.30
2018-07-05T04:13:00.740Z,64.70
2018-07-05T04:15:47.470Z,64.50
2018-07-05T04:18:33.761Z,64.70
2018-07-05T04:21:20.117Z,64.80
2018-07-05T04:24:07.024Z,64.80
2018-07-05T04:26:53.505Z,64.60
2018-07-05T04:29:40.229Z,64.80
2018-07-05T04:32:26.607Z,64.70
2018-07-05T04:35:13.419Z,64.40
2018-07-05T04:37:59.896Z,64.50
2018-07-05T04:40:46.646Z,64.50
2018-07-05T04:43:33.066Z,64.70
2018-07-05T04:46:19.712Z,66.20
2018-07-05T04:49:06.380Z,67.00
2018-07-05T04:51:52.985Z,65.50
2018-07-05T04:54:39.587Z,64.70
2018-07-05T04:57:26.107Z,63.30
2018-07-05T05:00:12.692Z,62.90
2018-07-05T05:02:59.296Z,62.40
2018-07-05T05:05:45.890Z,61.40
2018-07-05T05:08:32.795Z,61.50
2018-07-05T05:11:19.614Z,61.00
2018-07-05T05:14:06.137Z,60.00
2018-07-05T05:16:52.877Z,60.70
2018-07-05T05:19:39.441Z,60.60
2018-07-05T05:22:26.176Z,61.00
2018-07-05T05:25:12.956Z,60.60
2018-07-05T05:27:59.581Z,60.10
2018-07-05T05:30:45.822Z,60.10
2018-07-05T05:33:32.581Z,59.60
2018-07-05T05:36:18.986Z,59.30
2018-07-05T05:39:06.136Z,59.40
2018-07-05T05:44:33.136Z,58.80
2018-07-05T05:47:19.561Z,58.80
2018-07-05T05:50:06.380Z,59.10
2018-07-05T05:52:52.951Z,59.30
2018-07-05T05:55:39.265Z,59.10
2018-07-05T05:58:25.760Z,59.10
2018-07-05T06:01:12.225Z,58.80
2018-07-05T06:03:58.776Z,58.20
2018-07-05T06:06:45.382Z,59.30
2018-07-05T06:09:32.027Z,59.10
2018-07-05T06:12:18.621Z,59.90
2018-07-05T06:15:05.682Z,60.30
2018-07-05T06:17:52.590Z,61.10
2018-07-05T06:20:39.120Z,61.50
2018-07-05T06:23:25.676Z,61.60
2018-07-05T06:26:12.477Z,63.00
2018-07-05T06:28:59.450Z,64.20
2018-07-05T06:31:46.248Z,65.50
2018-07-05T06:34:32.475Z,66.40
2018-07-05T06:37:19.067Z,67.70
2018-07-05T06:40:05.355Z,68.90
2018-07-05T06:42:51.808Z,71.50
2018-07-05T06:45:38.630Z,74.20
2018-07-05T06:48:25.381Z,77.00
2018-07-05T06:51:12.846Z,78.30
2018-07-05T06:53:59.526Z,78.30
2018-07-05T06:56:46.448Z,78.80
2018-07-05T06:59:32.956Z,80.80
2018-07-05T07:02:19.865Z,86.30
2018-07-05T07:05:06.569Z,87.10
2018-07-05T07:07:53.190Z,87.30
2018-07-05T07:10:39.637Z,82.60
2018-07-05T07:13:26.108Z,81.00
2018-07-05T07:16:12.711Z,81.30
2018-07-05T07:18:59.415Z,82.40
2018-07-05T07:21:46.302Z,87.90
2018-07-05T07:24:33.075Z,85.60
2018-07-05T07:27:19.702Z,83.90
2018-07-05T07:30:06.404Z,83.90
2018-07-05T07:32:53.251Z,86.00
2018-07-05T07:35:39.931Z,89.10
2018-07-05T07:38:26.435Z,87.80
2018-07-05T07:41:13.200Z,85.30
2018-07-05T07:43:41.079Z,85.20
2018-07-05T07:46:09.004Z,89.90
2018-07-05T07:48:37.008Z,88.70
2018-07-05T07:51:04.859Z,90.20
2018-07-05T07:53:33.038Z,88.90
2018-07-05T07:56:01.638Z,89.50
2018-07-05T07:58:29.670Z,88.10
2018-07-05T08:00:57.580Z,89.20
2018-07-05T08:03:25.500Z,90.40
2018-07-05T08:05:53.411Z,90.80
2018-07-05T08:08:21.440Z,91.20
2018-07-05T08:10:49.489Z,89.50
2018-07-05T08:13:17.452Z,89.60
2018-07-05T08:15:45.473Z,89.30
2018-07-05T08:18:13.522Z,90.90
2018-07-05T08:20:41.506Z,88.70
2018-07-05T08:23:09.477Z,86.40
2018-07-05T08:28:05.925Z,90.10
2018-07-05T08:30:33.911Z,88.90
2018-07-05T08:33:02.002Z,88.60
2018-07-05T08:35:30.112Z,90.30
2018-07-05T08:37:58.013Z,90.70
2018-07-05T08:40:26.550Z,90.50
2018-07-05T08:42:54.388Z,90.90
2018-07-05T08:45:22.297Z,89.10
2018-07-05T08:47:50.344Z,89.90
2018-07-05T08:50:18.197Z,90.00
2018-07-05T08:52:46.082Z,90.30
2018-07-05T08:55:14.112Z,90.60
2018-07-05T08:57:42.051Z,88.80
2018-07-05T09:00:10.115Z,89.80
2018-07-05T09:02:38.047Z,89.70
2018-07-05T09:05:06.039Z,90.20
2018-07-05T09:07:34.011Z,88.60
2018-07-05T09:10:01.910Z,87.80
2018-07-05T09:12:29.922Z,85.10
2018-07-05T09:14:57.798Z,85.20
2018-07-05T09:17:25.717Z,86.70
2018-07-05T09:19:53.743Z,88.50
2018-07-05T09:22:21.792Z,87.30
2018-07-05T09:24:49.662Z,87.30
2018-07-05T09:27:17.663Z,87.50
2018-07-05T09:32:13.953Z,85.10
2018-07-05T09:34:42.134Z,86.50
2018-07-05T09:37:15.557Z,87.30
2018-07-05T09:39:43.653Z,85.80
2018-07-05T09:42:11.710Z,86.20
2018-07-05T09:44:39.658Z,85.10
2018-07-05T09:47:07.906Z,85.30
2018-07-05T09:49:35.830Z,85.10
2018-07-05T09:52:04.004Z,82.00
2018-07-05T09:54:31.935Z,82.00
2018-07-05T09:57:00.244Z,80.90
2018-07-05T09:59:28.057Z,76.60
2018-07-05T10:01:55.956Z,79.10
2018-07-05T10:04:24.036Z,74.00
2018-07-05T10:06:52.153Z,76.20
2018-07-05T10:09:20.067Z,75.40
2018-07-05T10:11:47.937Z,75.30
2018-07-05T10:14:15.913Z,73.10
2018-07-05T10:16:43.869Z,71.90
2018-07-05T10:19:11.889Z,71.00
2018-07-05T10:21:40.099Z,69.90
2018-07-05T10:24:08.154Z,71.10
2018-07-05T10:26:36.143Z,70.40
2018-07-05T10:29:23.033Z,68.90
2018-07-05T10:32:09.718Z,71.00
2018-07-05T10:34:37.598Z,69.50
2018-07-05T10:37:05.451Z,72.10
2018-07-05T10:39:34.203Z,71.30
2018-07-05T10:42:20.979Z,71.40
2018-07-05T10:47:48.926Z,70.10
2018-07-05T10:50:35.491Z,70.40
2018-07-05T10:53:23.087Z,69.10
2018-07-05T10:56:09.832Z,67.20
2018-07-05T10:58:56.046Z,67.70
2018-07-05T11:01:42.791Z,65.20
2018-07-05T11:04:29.574Z,65.70
2018-07-05T11:07:16.243Z,64.50
2018-07-05T11:10:03.185Z,63.40
2018-07-05T11:12:49.585Z,62.60
2018-07-05T11:15:36.749Z,63.50
2018-07-05T11:18:23.773Z,63.50
2018-07-05T11:21:10.594Z,61.70
2018-07-05T11:26:37.943Z,61.20
2018-07-05T11:29:24.502Z,60.00
2018-07-05T11:32:12.182Z,59.20
2018-07-05T11:34:59.167Z,58.60
2018-07-05T11:37:46.893Z,57.60
2018-07-05T11:40:33.306Z,56.00
2018-07-05T11:43:20.054Z,56.30
2018-07-05T11:48:47.277Z,54.70
2018-07-05T11:51:34.074Z,55.10
2018-07-05T11:54:20.590Z,54.10
2018-07-05T11:57:07.302Z,54.60
2018-07-05T11:59:54.095Z,53.50
2018-07-05T12:02:40.786Z,52.60
2018-07-05T12:05:27.589Z,53.00
2018-07-05T12:08:13.808Z,51.80
2018-07-05T12:11:00.035Z,52.30
2018-07-05T12:13:46.417Z,51.80
2018-07-05T12:16:32.748Z,50.60
2018-07-05T12:19:19.059Z,50.10
2018-07-05T12:22:05.646Z,50.90
2018-07-05T12:24:52.383Z,51.10
2018-07-05T12:27:39.233Z,50.50
2018-07-05T12:30:25.878Z,51.40
2018-07-05T12:33:12.681Z,51.20
2018-07-05T12:36:00.547Z,51.60
2018-07-05T12:38:46.982Z,50.90
2018-07-05T12:44:14.273Z,49.30
2018-07-05T12:47:00.852Z,50.00
2018-07-05T12:49:47.453Z,49.00
2018-07-05T12:52:33.960Z,48.30
2018-07-05T12:55:20.437Z,48.70
2018-07-05T12:58:07.085Z,48.50
2018-07-05T13:00:53.865Z,46.90
2018-07-05T13:03:40.639Z,47.60
2018-07-05T13:06:27.244Z,46.90
2018-07-05T13:09:14.766Z,45.80
2018-07-05T13:12:01.337Z,44.70
2018-07-05T13:14:47.958Z,45.30
2018-07-05T13:20:15.384Z,44.00
2018-07-05T13:23:02.274Z,43.20
2018-07-05T13:25:49.000Z,42.50
2018-07-05T13:28:36.113Z,43.00
2018-07-05T13:31:22.708Z,42.10
2018-07-05T13:34:09.369Z,42.10
2018-07-05T13:36:56.077Z,42.30
2018-07-05T13:39:43.117Z,44.20
2018-07-05T13:42:29.823Z,44.20
2018-07-05T13:45:16.606Z,43.20
2018-07-05T13:48:03.084Z,44.20
2018-07-05T13:50:49.958Z,41.00
2018-07-05T13:53:36.609Z,42.90
2018-07-05T13:56:23.372Z,43.50
2018-07-05T13:59:09.692Z,42.70
2018-07-05T14:01:56.483Z,42.40
2018-07-05T14:04:42.749Z,43.00
2018-07-05T14:07:29.537Z,43.50
2018-07-05T14:10:16.496Z,43.20
2018-07-05T14:13:03.412Z,41.70
2018-07-05T14:15:50.363Z,42.60
2018-07-05T14:18:37.204Z,43.70
2018-07-05T14:21:24.472Z,43.40
2018-07-05T14:24:11.526Z,44.40
2018-07-05T14:26:58.224Z,43.70
2018-07-05T14:29:44.952Z,43.90
2018-07-05T14:32:31.756Z,44.60
2018-07-05T14:35:18.301Z,44.70
2018-07-05T14:38:05.124Z,44.70
2018-07-05T14:40:51.928Z,44.80
2018-07-05T14:43:38.785Z,45.30
2018-07-05T14:49:06.237Z,44.50
2018-07-05T14:51:53.084Z,45.10
2018-07-05T14:54:39.884Z,44.90
2018-07-05T14:57:26.664Z,45.30
2018-07-05T15:00:13.362Z,45.80
2018-07-05T15:02:59.695Z,44.20
2018-07-05T15:05:46.883Z,44.00
2018-07-05T15:08:33.380Z,43.90
2018-07-05T15:11:20.212Z,44.20
2018-07-05T15:14:07.036Z,44.70
2018-07-05T15:16:53.997Z,45.20
2018-07-05T15:19:42.578Z,44.60
2018-07-05T15:22:29.169Z,44.30
2018-07-05T15:25:15.524Z,44.90
2018-07-05T15:28:02.076Z,45.00
2018-07-05T15:30:48.311Z,45.00
2018-07-05T15:33:34.977Z,44.40
2018-07-05T15:36:21.745Z,44.90
2018-07-05T15:39:08.106Z,43.60
2018-07-05T15:41:56.045Z,44.10
2018-07-05T15:44:42.744Z,44.10
2018-07-05T15:47:29.500Z,43.50
2018-07-05T15:50:16.352Z,43.70
2018-07-05T15:53:03.190Z,43.30
2018-07-05T15:55:49.838Z,43.90
2018-07-05T15:58:36.714Z,44.30
2018-07-05T16:01:23.344Z,43.90
2018-07-05T16:04:10.403Z,43.80
2018-07-05T16:06:56.538Z,44.30
2018-07-05T16:09:43.788Z,43.90
2018-07-05T16:12:30.437Z,44.40
2018-07-05T16:15:17.251Z,44.50
2018-07-05T16:18:04.008Z,44.20
2018-07-05T16:20:50.807Z,44.10
2018-07-05T16:23:37.074Z,44.20
2018-07-05T16:26:23.757Z,44.10
2018-07-05T16:29:10.305Z,41.70
2018-07-05T16:31:57.349Z,40.10
2018-07-05T16:34:43.824Z,39.70
2018-07-05T16:37:30.625Z,36.90
2018-07-05T16:40:17.348Z,36.00
2018-07-05T16:43:04.089Z,36.80
2018-07-05T16:45:50.770Z,36.60
2018-07-05T16:48:37.581Z,36.50
2018-07-05T16:51:24.323Z,35.80
2018-07-05T16:54:10.801Z,35.00
2018-07-05T16:56:57.054Z,34.50
2018-07-05T16:59:43.844Z,34.20
2018-07-05T17:02:30.658Z,33.70
2018-07-05T17:05:17.204Z,34.00
2018-07-05T17:08:04.091Z,33.60
2018-07-05T17:10:50.879Z,35.20
2018-07-05T17:13:37.608Z,35.70
2018-07-05T17:16:24.321Z,36.10
2018-07-05T17:19:11.128Z,35.80
2018-07-05T17:21:57.648Z,36.80
2018-07-05T17:24:44.413Z,37.20
2018-07-05T17:27:30.955Z,37.70
2018-07-05T17:30:17.588Z,41.10
2018-07-05T17:33:04.139Z,42.00
2018-07-05T17:35:50.708Z,39.10
2018-07-05T17:38:37.776Z,36.90
2018-07-05T17:41:24.549Z,38.80
2018-07-05T17:44:11.343Z,36.90
2018-07-05T17:46:58.039Z,35.90
2018-07-05T17:49:44.690Z,35.20
2018-07-05T17:52:31.149Z,34.50
2018-07-05T17:55:17.648Z,32.70
2018-07-05T17:58:04.408Z,33.10
2018-07-05T18:00:52.218Z,33.90
2018-07-05T18:03:38.698Z,33.30
2018-07-05T18:06:25.352Z,32.50
2018-07-05T18:09:11.977Z,33.70
2018-07-05T18:11:58.571Z,33.30
2018-07-05T18:14:45.213Z,36.30
2018-07-05T18:17:31.999Z,36.50
2018-07-05T18:20:18.914Z,38.10
2018-07-05T18:23:05.590Z,38.90
2018-07-05T18:25:52.274Z,38.50
2018-07-05T18:28:39.217Z,37.40
2018-07-05T18:31:26.134Z,36.60
2018-07-05T18:34:12.942Z,35.90
2018-07-05T18:36:59.714Z,35.90
2018-07-05T18:39:46.378Z,36.70
2018-07-05T18:42:32.908Z,36.80
2018-07-05T18:45:19.464Z,38.00
2018-07-05T18:48:06.303Z,38.70
2018-07-05T18:50:52.928Z,40.10
2018-07-05T18:53:39.275Z,40.40
2018-07-05T18:56:25.880Z,40.70
2018-07-05T18:59:12.468Z,42.60
2018-07-05T19:01:58.959Z,42.60
2018-07-05T19:04:45.838Z,42.30
2018-07-05T19:07:32.804Z,42.80
2018-07-05T19:10:19.377Z,42.50
2018-07-05T19:13:06.082Z,41.60
2018-07-05T19:15:52.752Z,41.80
2018-07-05T19:21:20.607Z,43.30
2018-07-05T19:24:07.513Z,42.60
2018-07-05T19:26:54.397Z,43.10
2018-07-05T19:29:40.903Z,43.40
2018-07-05T19:32:27.815Z,44.60
2018-07-05T19:35:14.353Z,44.80
2018-07-05T19:38:01.280Z,45.70
2018-07-05T19:40:47.924Z,45.80
2018-07-05T19:43:34.798Z,45.20
2018-07-05T19:49:02.136Z,45.20
2018-07-05T19:51:48.957Z,46.40
2018-07-05T19:54:35.779Z,46.50
2018-07-05T19:57:22.691Z,45.90
2018-07-05T20:00:09.533Z,46.70
2018-07-05T20:02:56.500Z,46.20
2018-07-05T20:05:43.134Z,47.20
2018-07-05T20:08:30.054Z,47.20
2018-07-05T20:13:57.368Z,47.60
2018-07-05T20:16:44.206Z,49.90
2018-07-05T20:19:30.871Z,49.20
2018-07-05T20:22:19.841Z,49.50
2018-07-05T20:25:06.898Z,47.80
2018-07-05T20:27:53.667Z,49.40
2018-07-05T20:30:40.377Z,48.90
2018-07-05T20:33:27.278Z,49.20
2018-07-05T20:36:13.700Z,48.50
2018-07-05T20:39:00.401Z,49.20
2018-07-05T20:41:47.175Z,48.80
2018-07-05T20:44:33.403Z,49.70
2018-07-05T20:47:20.026Z,50.00
2018-07-05T20:50:07.124Z,49.80
2018-07-05T20:52:53.628Z,50.20
2018-07-05T20:55:40.120Z,50.70
2018-07-05T20:58:26.878Z,50.70
2018-07-05T21:01:13.660Z,49.60
2018-07-05T21:04:00.473Z,50.60
2018-07-05T21:06:47.178Z,50.90
2018-07-05T21:09:34.081Z,51.10
2018-07-05T21:12:20.248Z,51.00
2018-07-05T21:15:07.103Z,51.00
2018-07-05T21:17:53.998Z,50.70
2018-07-05T21:20:40.175Z,51.10
2018-07-05T21:23:26.974Z,51.90
2018-07-05T21:26:13.517Z,52.70
2018-07-05T21:28:59.907Z,53.20
2018-07-05T21:31:46.413Z,53.20
2018-07-05T21:34:33.122Z,53.60
2018-07-05T21:37:19.795Z,54.40
2018-07-05T21:40:06.291Z,54.70
2018-07-05T21:42:52.923Z,55.10
2018-07-05T21:45:39.503Z,55.30
2018-07-05T21:48:26.004Z,55.70
2018-07-05T21:51:12.380Z,55.70
2018-07-05T21:53:59.117Z,55.90
2018-07-05T21:56:46.217Z,55.90
2018-07-05T21:59:33.067Z,56.70
2018-07-05T22:02:19.814Z,57.00
2018-07-05T22:05:10.513Z,57.00
2018-07-05T22:07:57.308Z,57.20
2018-07-05T22:10:44.140Z,57.00
2018-07-05T22:13:30.880Z,57.00
2018-07-05T22:16:17.515Z,57.60
2018-07-05T22:19:09.335Z,58.00
2018-07-05T22:22:00.748Z,58.70
2018-07-05T22:24:52.443Z,57.90
2018-07-05T22:27:44.462Z,59.10
2018-07-05T22:30:36.496Z,59.50
2018-07-05T22:33:22.717Z,59.80
2018-07-05T22:36:09.442Z,59.30
2018-07-05T22:38:56.173Z,59.70
2018-07-05T22:41:42.816Z,59.90
2018-07-05T22:44:29.403Z,59.70
2018-07-05T22:47:16.074Z,60.10
2018-07-05T22:50:03.124Z,60.30
2018-07-05T22:52:49.603Z,60.20
2018-07-05T22:55:35.853Z,60.70
2018-07-05T22:58:22.643Z,60.60
2018-07-05T23:01:09.356Z,61.10
2018-07-05T23:03:56.357Z,61.20
2018-07-05T23:06:42.860Z,61.30
2018-07-05T23:09:29.659Z,62.10
2018-07-05T23:12:15.872Z,61.40
2018-07-05T23:15:02.463Z,61.60
2018-07-05T23:17:49.264Z,61.30
2018-07-05T23:20:35.534Z,61.70
2018-07-05T23:23:21.937Z,61.50
2018-07-05T23:26:08.688Z,61.40
2018-07-05T23:28:55.352Z,61.70
2018-07-05T23:31:41.957Z,61.60
2018-07-05T23:34:28.860Z,61.80
2018-07-05T23:37:15.685Z,61.90
2018-07-05T23:40:02.335Z,61.90
2018-07-05T23:42:49.249Z,61.90
2018-07-05T23:45:35.964Z,61.80
2018-07-05T23:48:22.568Z,61.80
2018-07-05T23:51:09.439Z,62.40
2018-07-05T23:53:56.248Z,62.30
2018-07-05T23:56:42.900Z,62.60
2018-07-05T23:59:29.804Z,63.00
